sensor_id;sensor_type;location;lat;lon;timestamp;P1;durP1;ratioP1;P2;durP2;ratioP2
18100;SDS011;9177;49.156;8.142;2023-06-10T00:02:22;2.78;;;2.58;;
18100;SDS011;9177;49.156;8.142;2023-06-10T00:04:49;3.22;;;3.03;;
18100;SDS011;9177;49.156;8.142;2023-06-10T00:07:16;3.13;;;2.80;;
18100;SDS011;9177;49.156;8.142;2023-06-10T00:09:43;3.08;;;2.72;;
18100;SDS011;9177;49.156;8.142;2023-06-10T00:12:10;3.63;;;3.28;;
18100;SDS011;9177;49.156;8.142;2023-06-10T00:14:38;2.95;;;2.75;;
18100;SDS011;9177;49.156;8.142;2023-06-10T00:17:06;3.30;;;3.00;;
18100;SDS011;9177;49.156;8.142;2023-06-10T00:19:36;3.13;;;2.92;;
18100;SDS011;9177;49.156;8.142;2023-06-10T00:22:06;3.25;;;3.05;;
18100;SDS011;9177;49.156;8.142;2023-06-10T00:24:33;3.50;;;3.30;;
18100;SDS011;9177;49.156;8.142;2023-06-10T00:27:00;3.83;;;3.53;;
18100;SDS011;9177;49.156;8.142;2023-06-10T00:29:28;3.17;;;2.95;;
18100;SDS011;9177;49.156;8.142;2023-06-10T00:31:55;4.05;;;3.75;;
18100;SDS011;9177;49.156;8.142;2023-06-10T00:34:23;3.28;;;3.08;;
18100;SDS011;9177;49.156;8.142;2023-06-10T00:36:51;3.75;;;3.35;;
18100;SDS011;9177;49.156;8.142;2023-06-10T00:39:18;3.00;;;2.80;;
18100;SDS011;9177;49.156;8.142;2023-06-10T00:41:45;3.30;;;3.10;;
18100;SDS011;9177;49.156;8.142;2023-06-10T00:44:12;3.35;;;3.15;;
18100;SDS011;9177;49.156;8.142;2023-06-10T00:46:39;3.03;;;2.83;;
18100;SDS011;9177;49.156;8.142;2023-06-10T00:49:07;3.40;;;3.13;;
18100;SDS011;9177;49.156;8.142;2023-06-10T00:51:35;2.92;;;2.72;;
18100;SDS011;9177;49.156;8.142;2023-06-10T00:54:03;3.40;;;3.20;;
18100;SDS011;9177;49.156;8.142;2023-06-10T00:56:31;3.55;;;3.33;;
18100;SDS011;9177;49.156;8.142;2023-06-10T00:58:59;3.38;;;3.17;;
18100;SDS011;9177;49.156;8.142;2023-06-10T01:01:26;3.40;;;3.10;;
18100;SDS011;9177;49.156;8.142;2023-06-10T01:03:54;3.50;;;3.30;;
18100;SDS011;9177;49.156;8.142;2023-06-10T01:06:24;3.72;;;3.42;;
18100;SDS011;9177;49.156;8.142;2023-06-10T01:09:05;3.42;;;3.15;;
18100;SDS011;9177;49.156;8.142;2023-06-10T01:11:41;3.35;;;3.15;;
18100;SDS011;9177;49.156;8.142;2023-06-10T01:14:12;3.60;;;3.40;;
18100;SDS011;9177;49.156;8.142;2023-06-10T01:16:40;3.50;;;3.20;;
18100;SDS011;9177;49.156;8.142;2023-06-10T01:19:07;3.53;;;3.30;;
18100;SDS011;9177;49.156;8.142;2023-06-10T01:21:36;3.80;;;3.50;;
18100;SDS011;9177;49.156;8.142;2023-06-10T01:24:05;3.28;;;2.97;;
18100;SDS011;9177;49.156;8.142;2023-06-10T01:26:33;3.75;;;3.45;;
18100;SDS011;9177;49.156;8.142;2023-06-10T01:29:03;3.50;;;3.28;;
18100;SDS011;9177;49.156;8.142;2023-06-10T01:31:35;3.40;;;3.17;;
18100;SDS011;9177;49.156;8.142;2023-06-10T01:34:09;3.17;;;2.97;;
18100;SDS011;9177;49.156;8.142;2023-06-10T01:36:40;3.58;;;3.30;;
18100;SDS011;9177;49.156;8.142;2023-06-10T01:39:10;3.70;;;3.40;;
18100;SDS011;9177;49.156;8.142;2023-06-10T01:41:38;3.38;;;3.17;;
18100;SDS011;9177;49.156;8.142;2023-06-10T01:44:05;3.40;;;3.20;;
18100;SDS011;9177;49.156;8.142;2023-06-10T01:46:32;3.80;;;3.42;;
18100;SDS011;9177;49.156;8.142;2023-06-10T01:48:59;3.67;;;3.38;;
18100;SDS011;9177;49.156;8.142;2023-06-10T01:51:26;3.67;;;3.38;;
18100;SDS011;9177;49.156;8.142;2023-06-10T01:53:54;3.67;;;3.38;;
18100;SDS011;9177;49.156;8.142;2023-06-10T01:56:21;3.80;;;3.50;;
18100;SDS011;9177;49.156;8.142;2023-06-10T01:58:48;3.58;;;3.28;;
18100;SDS011;9177;49.156;8.142;2023-06-10T02:01:15;3.60;;;3.30;;
18100;SDS011;9177;49.156;8.142;2023-06-10T02:03:42;4.25;;;3.40;;
18100;SDS011;9177;49.156;8.142;2023-06-10T02:06:09;3.38;;;3.17;;
18100;SDS011;9177;49.156;8.142;2023-06-10T02:08:36;3.40;;;3.20;;
18100;SDS011;9177;49.156;8.142;2023-06-10T02:11:04;3.80;;;3.50;;
18100;SDS011;9177;49.156;8.142;2023-06-10T02:13:32;3.85;;;3.55;;
18100;SDS011;9177;49.156;8.142;2023-06-10T02:15:58;3.95;;;3.65;;
18100;SDS011;9177;49.156;8.142;2023-06-10T02:18:26;3.42;;;3.22;;
18100;SDS011;9177;49.156;8.142;2023-06-10T02:20:53;3.30;;;3.10;;
18100;SDS011;9177;49.156;8.142;2023-06-10T02:23:20;3.17;;;2.97;;
18100;SDS011;9177;49.156;8.142;2023-06-10T02:25:46;3.70;;;3.40;;
18100;SDS011;9177;49.156;8.142;2023-06-10T02:28:14;3.17;;;2.97;;
18100;SDS011;9177;49.156;8.142;2023-06-10T02:30:42;3.40;;;3.20;;
18100;SDS011;9177;49.156;8.142;2023-06-10T02:33:11;3.28;;;3.08;;
18100;SDS011;9177;49.156;8.142;2023-06-10T02:35:38;3.38;;;3.17;;
18100;SDS011;9177;49.156;8.142;2023-06-10T02:38:05;3.65;;;3.45;;
18100;SDS011;9177;49.156;8.142;2023-06-10T02:40:32;3.88;;;3.58;;
18100;SDS011;9177;49.156;8.142;2023-06-10T02:42:59;3.35;;;3.05;;
18100;SDS011;9177;49.156;8.142;2023-06-10T02:45:27;3.65;;;3.35;;
18100;SDS011;9177;49.156;8.142;2023-06-10T02:47:54;3.33;;;3.13;;
18100;SDS011;9177;49.156;8.142;2023-06-10T02:50:21;3.40;;;3.20;;
18100;SDS011;9177;49.156;8.142;2023-06-10T02:52:48;3.30;;;3.10;;
18100;SDS011;9177;49.156;8.142;2023-06-10T02:55:15;3.80;;;3.50;;
18100;SDS011;9177;49.156;8.142;2023-06-10T02:57:41;3.40;;;3.20;;
18100;SDS011;9177;49.156;8.142;2023-06-10T03:00:09;3.25;;;3.05;;
18100;SDS011;9177;49.156;8.142;2023-06-10T03:02:38;3.53;;;3.33;;
18100;SDS011;9177;49.156;8.142;2023-06-10T03:05:05;3.45;;;3.15;;
18100;SDS011;9177;49.156;8.142;2023-06-10T03:07:34;3.67;;;3.38;;
18100;SDS011;9177;49.156;8.142;2023-06-10T03:10:02;3.25;;;3.05;;
18100;SDS011;9177;49.156;8.142;2023-06-10T03:12:30;3.35;;;3.15;;
18100;SDS011;9177;49.156;8.142;2023-06-10T03:14:56;3.47;;;3.17;;
18100;SDS011;9177;49.156;8.142;2023-06-10T03:17:23;3.60;;;3.33;;
18100;SDS011;9177;49.156;8.142;2023-06-10T03:19:51;3.60;;;3.40;;
18100;SDS011;9177;49.156;8.142;2023-06-10T03:22:18;3.45;;;3.25;;
18100;SDS011;9177;49.156;8.142;2023-06-10T03:24:45;3.28;;;3.08;;
18100;SDS011;9177;49.156;8.142;2023-06-10T03:27:16;3.22;;;3.03;;
18100;SDS011;9177;49.156;8.142;2023-06-10T03:29:43;3.20;;;3.00;;
18100;SDS011;9177;49.156;8.142;2023-06-10T03:32:10;3.35;;;3.15;;
18100;SDS011;9177;49.156;8.142;2023-06-10T03:34:36;3.15;;;2.95;;
18100;SDS011;9177;49.156;8.142;2023-06-10T03:37:05;3.00;;;2.80;;
18100;SDS011;9177;49.156;8.142;2023-06-10T03:39:32;3.85;;;3.55;;
18100;SDS011;9177;49.156;8.142;2023-06-10T03:41:59;3.83;;;3.63;;
18100;SDS011;9177;49.156;8.142;2023-06-10T03:44:26;3.55;;;3.35;;
18100;SDS011;9177;49.156;8.142;2023-06-10T03:46:53;3.30;;;3.10;;
18100;SDS011;9177;49.156;8.142;2023-06-10T03:49:21;3.28;;;3.08;;
18100;SDS011;9177;49.156;8.142;2023-06-10T03:51:52;3.28;;;3.08;;
18100;SDS011;9177;49.156;8.142;2023-06-10T03:54:20;3.72;;;3.42;;
18100;SDS011;9177;49.156;8.142;2023-06-10T03:56:50;3.63;;;3.33;;
18100;SDS011;9177;49.156;8.142;2023-06-10T03:59:17;3.00;;;2.80;;
18100;SDS011;9177;49.156;8.142;2023-06-10T04:01:44;3.97;;;3.63;;
18100;SDS011;9177;49.156;8.142;2023-06-10T04:04:13;3.83;;;3.53;;
18100;SDS011;9177;49.156;8.142;2023-06-10T04:06:41;3.35;;;3.15;;
18100;SDS011;9177;49.156;8.142;2023-06-10T04:09:09;3.38;;;3.10;;
18100;SDS011;9177;49.156;8.142;2023-06-10T04:11:38;3.30;;;3.10;;
18100;SDS011;9177;49.156;8.142;2023-06-10T04:14:05;3.50;;;3.30;;
18100;SDS011;9177;49.156;8.142;2023-06-10T04:16:32;3.15;;;2.95;;
18100;SDS011;9177;49.156;8.142;2023-06-10T04:19:00;3.30;;;3.10;;
18100;SDS011;9177;49.156;8.142;2023-06-10T04:21:27;3.58;;;3.28;;
18100;SDS011;9177;49.156;8.142;2023-06-10T04:23:54;3.75;;;3.55;;
18100;SDS011;9177;49.156;8.142;2023-06-10T04:26:21;3.60;;;3.33;;
18100;SDS011;9177;49.156;8.142;2023-06-10T04:28:49;3.50;;;3.22;;
18100;SDS011;9177;49.156;8.142;2023-06-10T04:31:16;3.30;;;3.03;;
18100;SDS011;9177;49.156;8.142;2023-06-10T04:33:43;3.53;;;3.30;;
18100;SDS011;9177;49.156;8.142;2023-06-10T04:36:10;3.35;;;3.15;;
18100;SDS011;9177;49.156;8.142;2023-06-10T04:38:36;3.67;;;3.35;;
18100;SDS011;9177;49.156;8.142;2023-06-10T04:41:03;3.42;;;3.17;;
18100;SDS011;9177;49.156;8.142;2023-06-10T04:43:30;3.35;;;3.05;;
18100;SDS011;9177;49.156;8.142;2023-06-10T04:45:58;3.60;;;3.40;;
18100;SDS011;9177;49.156;8.142;2023-06-10T04:48:25;3.40;;;3.20;;
18100;SDS011;9177;49.156;8.142;2023-06-10T04:50:52;3.70;;;3.28;;
18100;SDS011;9177;49.156;8.142;2023-06-10T04:53:19;3.22;;;3.03;;
18100;SDS011;9177;49.156;8.142;2023-06-10T04:55:46;3.63;;;3.42;;
18100;SDS011;9177;49.156;8.142;2023-06-10T04:58:14;3.63;;;3.33;;
18100;SDS011;9177;49.156;8.142;2023-06-10T05:00:41;3.40;;;3.20;;
18100;SDS011;9177;49.156;8.142;2023-06-10T05:03:10;3.50;;;3.30;;
18100;SDS011;9177;49.156;8.142;2023-06-10T05:05:37;3.47;;;3.28;;
18100;SDS011;9177;49.156;8.142;2023-06-10T05:08:03;3.83;;;3.50;;
18100;SDS011;9177;49.156;8.142;2023-06-10T05:10:30;3.45;;;3.15;;
18100;SDS011;9177;49.156;8.142;2023-06-10T05:12:59;3.28;;;3.08;;
18100;SDS011;9177;49.156;8.142;2023-06-10T05:15:26;3.78;;;3.50;;
18100;SDS011;9177;49.156;8.142;2023-06-10T05:17:53;3.47;;;3.20;;
18100;SDS011;9177;49.156;8.142;2023-06-10T05:20:24;3.53;;;3.22;;
18100;SDS011;9177;49.156;8.142;2023-06-10T05:22:51;3.45;;;3.15;;
18100;SDS011;9177;49.156;8.142;2023-06-10T05:25:18;3.67;;;3.38;;
18100;SDS011;9177;49.156;8.142;2023-06-10T05:27:45;3.40;;;3.20;;
18100;SDS011;9177;49.156;8.142;2023-06-10T05:30:12;3.50;;;3.28;;
18100;SDS011;9177;49.156;8.142;2023-06-10T05:32:40;3.78;;;3.40;;
18100;SDS011;9177;49.156;8.142;2023-06-10T05:35:07;3.78;;;3.47;;
18100;SDS011;9177;49.156;8.142;2023-06-10T05:37:35;4.10;;;3.80;;
18100;SDS011;9177;49.156;8.142;2023-06-10T05:40:02;4.15;;;3.75;;
18100;SDS011;9177;49.156;8.142;2023-06-10T05:42:30;4.03;;;3.72;;
18100;SDS011;9177;49.156;8.142;2023-06-10T05:44:57;4.22;;;3.83;;
18100;SDS011;9177;49.156;8.142;2023-06-10T05:47:24;3.75;;;3.45;;
18100;SDS011;9177;49.156;8.142;2023-06-10T05:49:51;4.00;;;3.70;;
18100;SDS011;9177;49.156;8.142;2023-06-10T05:52:17;3.85;;;3.55;;
18100;SDS011;9177;49.156;8.142;2023-06-10T05:54:46;3.95;;;3.65;;
18100;SDS011;9177;49.156;8.142;2023-06-10T05:57:13;3.95;;;3.60;;
18100;SDS011;9177;49.156;8.142;2023-06-10T05:59:40;3.80;;;3.60;;
18100;SDS011;9177;49.156;8.142;2023-06-10T06:02:06;3.55;;;3.30;;
18100;SDS011;9177;49.156;8.142;2023-06-10T06:04:33;4.00;;;3.70;;
18100;SDS011;9177;49.156;8.142;2023-06-10T06:07:00;4.13;;;3.63;;
18100;SDS011;9177;49.156;8.142;2023-06-10T06:09:27;3.80;;;3.50;;
18100;SDS011;9177;49.156;8.142;2023-06-10T06:11:55;4.25;;;3.85;;
18100;SDS011;9177;49.156;8.142;2023-06-10T06:14:22;4.05;;;3.75;;
18100;SDS011;9177;49.156;8.142;2023-06-10T06:16:49;3.97;;;3.67;;
18100;SDS011;9177;49.156;8.142;2023-06-10T06:19:18;4.07;;;3.70;;
18100;SDS011;9177;49.156;8.142;2023-06-10T06:21:45;4.22;;;3.92;;
18100;SDS011;9177;49.156;8.142;2023-06-10T06:24:12;3.80;;;3.50;;
18100;SDS011;9177;49.156;8.142;2023-06-10T06:26:40;4.22;;;3.92;;
18100;SDS011;9177;49.156;8.142;2023-06-10T06:29:08;3.85;;;3.55;;
18100;SDS011;9177;49.156;8.142;2023-06-10T06:31:35;4.05;;;3.75;;
18100;SDS011;9177;49.156;8.142;2023-06-10T06:34:01;4.05;;;3.75;;
18100;SDS011;9177;49.156;8.142;2023-06-10T06:36:28;4.10;;;3.80;;
18100;SDS011;9177;49.156;8.142;2023-06-10T06:38:55;4.10;;;3.65;;
18100;SDS011;9177;49.156;8.142;2023-06-10T06:41:23;3.92;;;3.63;;
18100;SDS011;9177;49.156;8.142;2023-06-10T06:43:50;3.75;;;3.45;;
18100;SDS011;9177;49.156;8.142;2023-06-10T06:46:19;3.70;;;3.40;;
18100;SDS011;9177;49.156;8.142;2023-06-10T06:48:46;3.72;;;3.53;;
18100;SDS011;9177;49.156;8.142;2023-06-10T06:51:13;3.53;;;3.22;;
18100;SDS011;9177;49.156;8.142;2023-06-10T06:53:40;4.20;;;3.85;;
18100;SDS011;9177;49.156;8.142;2023-06-10T06:56:09;4.10;;;3.80;;
18100;SDS011;9177;49.156;8.142;2023-06-10T06:58:36;3.70;;;3.50;;
18100;SDS011;9177;49.156;8.142;2023-06-10T07:01:03;3.85;;;3.55;;
18100;SDS011;9177;49.156;8.142;2023-06-10T07:03:32;3.85;;;3.58;;
18100;SDS011;9177;49.156;8.142;2023-06-10T07:05:59;3.97;;;3.67;;
18100;SDS011;9177;49.156;8.142;2023-06-10T07:08:26;3.75;;;3.40;;
18100;SDS011;9177;49.156;8.142;2023-06-10T07:10:52;3.90;;;3.60;;
18100;SDS011;9177;49.156;8.142;2023-06-10T07:13:19;3.42;;;3.22;;
18100;SDS011;9177;49.156;8.142;2023-06-10T07:15:46;3.97;;;3.67;;
18100;SDS011;9177;49.156;8.142;2023-06-10T07:18:14;3.75;;;3.53;;
18100;SDS011;9177;49.156;8.142;2023-06-10T07:20:43;3.72;;;3.42;;
18100;SDS011;9177;49.156;8.142;2023-06-10T07:23:10;3.88;;;3.58;;
18100;SDS011;9177;49.156;8.142;2023-06-10T07:25:37;3.85;;;3.58;;
18100;SDS011;9177;49.156;8.142;2023-06-10T07:28:04;4.10;;;3.80;;
18100;SDS011;9177;49.156;8.142;2023-06-10T07:30:31;3.85;;;3.55;;
18100;SDS011;9177;49.156;8.142;2023-06-10T07:32:58;3.70;;;3.40;;
18100;SDS011;9177;49.156;8.142;2023-06-10T07:35:27;4.18;;;3.88;;
18100;SDS011;9177;49.156;8.142;2023-06-10T07:37:55;3.50;;;3.20;;
18100;SDS011;9177;49.156;8.142;2023-06-10T07:40:22;4.00;;;3.70;;
18100;SDS011;9177;49.156;8.142;2023-06-10T07:42:50;3.45;;;3.25;;
18100;SDS011;9177;49.156;8.142;2023-06-10T07:45:17;4.00;;;3.70;;
18100;SDS011;9177;49.156;8.142;2023-06-10T07:47:44;3.58;;;3.28;;
18100;SDS011;9177;49.156;8.142;2023-06-10T07:50:13;4.20;;;3.85;;
18100;SDS011;9177;49.156;8.142;2023-06-10T07:52:43;3.70;;;3.42;;
18100;SDS011;9177;49.156;8.142;2023-06-10T07:55:11;3.65;;;3.40;;
18100;SDS011;9177;49.156;8.142;2023-06-10T07:57:38;4.00;;;3.70;;
18100;SDS011;9177;49.156;8.142;2023-06-10T08:00:05;3.78;;;3.35;;
18100;SDS011;9177;49.156;8.142;2023-06-10T08:02:33;3.50;;;3.30;;
18100;SDS011;9177;49.156;8.142;2023-06-10T08:05:00;3.85;;;3.55;;
18100;SDS011;9177;49.156;8.142;2023-06-10T08:07:27;3.70;;;3.45;;
18100;SDS011;9177;49.156;8.142;2023-06-10T08:09:54;4.20;;;3.90;;
18100;SDS011;9177;49.156;8.142;2023-06-10T08:12:22;3.60;;;3.33;;
18100;SDS011;9177;49.156;8.142;2023-06-10T08:14:49;3.45;;;3.25;;
18100;SDS011;9177;49.156;8.142;2023-06-10T08:17:16;3.65;;;3.35;;
18100;SDS011;9177;49.156;8.142;2023-06-10T08:19:43;3.83;;;3.60;;
18100;SDS011;9177;49.156;8.142;2023-06-10T08:22:10;3.42;;;3.22;;
18100;SDS011;9177;49.156;8.142;2023-06-10T08:24:37;3.75;;;3.42;;
18100;SDS011;9177;49.156;8.142;2023-06-10T08:27:04;4.07;;;3.75;;
18100;SDS011;9177;49.156;8.142;2023-06-10T08:29:33;4.00;;;3.70;;
18100;SDS011;9177;49.156;8.142;2023-06-10T08:32:00;3.80;;;3.50;;
18100;SDS011;9177;49.156;8.142;2023-06-10T08:34:27;3.65;;;3.40;;
18100;SDS011;9177;49.156;8.142;2023-06-10T08:36:54;4.00;;;3.70;;
18100;SDS011;9177;49.156;8.142;2023-06-10T08:39:22;3.45;;;3.25;;
18100;SDS011;9177;49.156;8.142;2023-06-10T08:41:50;3.33;;;3.13;;
18100;SDS011;9177;49.156;8.142;2023-06-10T08:44:27;3.67;;;3.38;;
18100;SDS011;9177;49.156;8.142;2023-06-10T08:46:57;4.63;;;3.17;;
18100;SDS011;9177;49.156;8.142;2023-06-10T08:49:26;3.88;;;3.50;;
18100;SDS011;9177;49.156;8.142;2023-06-10T08:51:58;3.58;;;3.30;;
18100;SDS011;9177;49.156;8.142;2023-06-10T08:54:27;4.32;;;3.78;;
18100;SDS011;9177;49.156;8.142;2023-06-10T08:56:59;4.20;;;3.33;;
18100;SDS011;9177;49.156;8.142;2023-06-10T08:59:27;3.35;;;3.15;;
18100;SDS011;9177;49.156;8.142;2023-06-10T09:01:56;3.67;;;3.38;;
18100;SDS011;9177;49.156;8.142;2023-06-10T09:04:24;3.80;;;3.10;;
18100;SDS011;9177;49.156;8.142;2023-06-10T09:06:52;3.72;;;3.42;;
18100;SDS011;9177;49.156;8.142;2023-06-10T09:09:20;4.78;;;3.47;;
18100;SDS011;9177;49.156;8.142;2023-06-10T09:11:49;4.63;;;3.42;;
18100;SDS011;9177;49.156;8.142;2023-06-10T09:14:16;3.67;;;3.33;;
18100;SDS011;9177;49.156;8.142;2023-06-10T09:16:43;3.40;;;3.20;;
18100;SDS011;9177;49.156;8.142;2023-06-10T09:19:13;4.95;;;3.33;;
18100;SDS011;9177;49.156;8.142;2023-06-10T09:21:41;6.03;;;3.10;;
18100;SDS011;9177;49.156;8.142;2023-06-10T09:24:08;3.67;;;3.42;;
18100;SDS011;9177;49.156;8.142;2023-06-10T09:26:36;3.65;;;3.28;;
18100;SDS011;9177;49.156;8.142;2023-06-10T09:29:03;4.00;;;3.60;;
18100;SDS011;9177;49.156;8.142;2023-06-10T09:31:31;4.32;;;3.53;;
18100;SDS011;9177;49.156;8.142;2023-06-10T09:34:07;3.85;;;3.50;;
18100;SDS011;9177;49.156;8.142;2023-06-10T09:36:36;4.03;;;3.53;;
18100;SDS011;9177;49.156;8.142;2023-06-10T09:39:04;4.15;;;3.58;;
18100;SDS011;9177;49.156;8.142;2023-06-10T09:41:40;6.25;;;3.58;;
18100;SDS011;9177;49.156;8.142;2023-06-10T09:44:10;4.22;;;3.15;;
18100;SDS011;9177;49.156;8.142;2023-06-10T09:46:39;3.92;;;3.63;;
18100;SDS011;9177;49.156;8.142;2023-06-10T09:49:07;5.15;;;3.47;;
18100;SDS011;9177;49.156;8.142;2023-06-10T09:51:34;4.75;;;3.40;;
18100;SDS011;9177;49.156;8.142;2023-06-10T09:54:03;6.00;;;3.72;;
18100;SDS011;9177;49.156;8.142;2023-06-10T09:56:34;4.65;;;3.17;;
18100;SDS011;9177;49.156;8.142;2023-06-10T09:59:01;3.58;;;3.28;;
18100;SDS011;9177;49.156;8.142;2023-06-10T10:01:31;4.75;;;3.40;;
18100;SDS011;9177;49.156;8.142;2023-06-10T10:03:58;5.15;;;3.20;;
18100;SDS011;9177;49.156;8.142;2023-06-10T10:06:26;4.20;;;3.60;;
18100;SDS011;9177;49.156;8.142;2023-06-10T10:08:55;4.55;;;3.45;;
18100;SDS011;9177;49.156;8.142;2023-06-10T10:11:24;5.05;;;3.35;;
18100;SDS011;9177;49.156;8.142;2023-06-10T10:13:52;5.85;;;3.40;;
18100;SDS011;9177;49.156;8.142;2023-06-10T10:16:20;5.18;;;3.20;;
18100;SDS011;9177;49.156;8.142;2023-06-10T10:18:54;4.75;;;3.33;;
18100;SDS011;9177;49.156;8.142;2023-06-10T10:21:22;4.18;;;3.00;;
18100;SDS011;9177;49.156;8.142;2023-06-10T10:23:53;4.97;;;3.20;;
18100;SDS011;9177;49.156;8.142;2023-06-10T10:26:26;3.80;;;3.45;;
18100;SDS011;9177;49.156;8.142;2023-06-10T10:28:58;5.75;;;3.80;;
18100;SDS011;9177;49.156;8.142;2023-06-10T10:31:36;5.03;;;3.30;;
18100;SDS011;9177;49.156;8.142;2023-06-10T10:34:06;6.45;;;3.35;;
18100;SDS011;9177;49.156;8.142;2023-06-10T10:36:38;4.75;;;3.10;;
18100;SDS011;9177;49.156;8.142;2023-06-10T10:39:05;4.22;;;3.88;;
18100;SDS011;9177;49.156;8.142;2023-06-10T10:41:34;3.55;;;3.25;;
18100;SDS011;9177;49.156;8.142;2023-06-10T10:44:04;3.50;;;3.20;;
18100;SDS011;9177;49.156;8.142;2023-06-10T10:46:41;3.53;;;3.22;;
18100;SDS011;9177;49.156;8.142;2023-06-10T10:49:10;3.60;;;3.30;;
18100;SDS011;9177;49.156;8.142;2023-06-10T10:51:53;6.15;;;3.30;;
18100;SDS011;9177;49.156;8.142;2023-06-10T10:54:27;3.95;;;3.60;;
18100;SDS011;9177;49.156;8.142;2023-06-10T10:57:16;3.70;;;3.28;;
18100;SDS011;9177;49.156;8.142;2023-06-10T10:59:54;5.00;;;3.20;;
18100;SDS011;9177;49.156;8.142;2023-06-10T11:02:34;4.20;;;3.05;;
18100;SDS011;9177;49.156;8.142;2023-06-10T11:05:04;4.20;;;3.70;;
18100;SDS011;9177;49.156;8.142;2023-06-10T11:07:32;4.20;;;3.05;;
18100;SDS011;9177;49.156;8.142;2023-06-10T11:10:02;4.68;;;3.92;;
18100;SDS011;9177;49.156;8.142;2023-06-10T11:12:43;4.00;;;3.60;;
18100;SDS011;9177;49.156;8.142;2023-06-10T11:15:22;5.32;;;3.63;;
18100;SDS011;9177;49.156;8.142;2023-06-10T11:18:09;4.15;;;3.45;;
18100;SDS011;9177;49.156;8.142;2023-06-10T11:20:53;4.22;;;3.75;;
18100;SDS011;9177;49.156;8.142;2023-06-10T11:26:15;4.72;;;3.72;;
18100;SDS011;9177;49.156;8.142;2023-06-10T11:29:03;3.97;;;3.67;;
18100;SDS011;9177;49.156;8.142;2023-06-10T11:31:33;5.95;;;4.22;;
18100;SDS011;9177;49.156;8.142;2023-06-10T11:34:05;4.70;;;4.30;;
18100;SDS011;9177;49.156;8.142;2023-06-10T11:36:33;5.78;;;5.18;;
18100;SDS011;9177;49.156;8.142;2023-06-10T11:39:03;5.13;;;4.63;;
18100;SDS011;9177;49.156;8.142;2023-06-10T11:41:32;5.90;;;5.22;;
18100;SDS011;9177;49.156;8.142;2023-06-10T11:44:02;7.18;;;5.20;;
18100;SDS011;9177;49.156;8.142;2023-06-10T11:46:30;6.43;;;5.57;;
18100;SDS011;9177;49.156;8.142;2023-06-10T11:48:58;6.70;;;5.38;;
18100;SDS011;9177;49.156;8.142;2023-06-10T11:51:26;5.65;;;5.18;;
18100;SDS011;9177;49.156;8.142;2023-06-10T11:53:55;6.18;;;5.47;;
18100;SDS011;9177;49.156;8.142;2023-06-10T11:56:22;8.13;;;6.05;;
18100;SDS011;9177;49.156;8.142;2023-06-10T11:58:54;8.35;;;5.30;;
18100;SDS011;9177;49.156;8.142;2023-06-10T12:01:24;7.13;;;5.70;;
18100;SDS011;9177;49.156;8.142;2023-06-10T12:03:59;6.03;;;5.32;;
18100;SDS011;9177;49.156;8.142;2023-06-10T12:06:27;9.02;;;6.25;;
18100;SDS011;9177;49.156;8.142;2023-06-10T12:09:03;13.13;;;6.93;;
18100;SDS011;9177;49.156;8.142;2023-06-10T12:11:30;9.23;;;6.20;;
18100;SDS011;9177;49.156;8.142;2023-06-10T12:13:57;9.02;;;5.60;;
18100;SDS011;9177;49.156;8.142;2023-06-10T12:16:26;8.00;;;7.10;;
18100;SDS011;9177;49.156;8.142;2023-06-10T12:19:00;7.53;;;5.82;;
18100;SDS011;9177;49.156;8.142;2023-06-10T12:21:29;9.15;;;5.97;;
18100;SDS011;9177;49.156;8.142;2023-06-10T12:24:04;8.45;;;6.45;;
18100;SDS011;9177;49.156;8.142;2023-06-10T12:26:34;8.45;;;5.93;;
18100;SDS011;9177;49.156;8.142;2023-06-10T12:29:16;6.78;;;5.72;;
18100;SDS011;9177;49.156;8.142;2023-06-10T12:31:56;7.93;;;5.95;;
18100;SDS011;9177;49.156;8.142;2023-06-10T12:34:35;10.38;;;5.90;;
18100;SDS011;9177;49.156;8.142;2023-06-10T12:37:03;7.50;;;5.85;;
18100;SDS011;9177;49.156;8.142;2023-06-10T12:39:31;6.95;;;5.70;;
18100;SDS011;9177;49.156;8.142;2023-06-10T12:41:59;8.77;;;5.82;;
18100;SDS011;9177;49.156;8.142;2023-06-10T12:44:33;9.95;;;6.18;;
18100;SDS011;9177;49.156;8.142;2023-06-10T12:47:08;8.15;;;5.93;;
18100;SDS011;9177;49.156;8.142;2023-06-10T12:49:37;9.20;;;5.90;;
18100;SDS011;9177;49.156;8.142;2023-06-10T12:52:05;10.73;;;5.78;;
18100;SDS011;9177;49.156;8.142;2023-06-10T12:54:33;8.35;;;5.90;;
18100;SDS011;9177;49.156;8.142;2023-06-10T12:57:01;6.53;;;5.90;;
18100;SDS011;9177;49.156;8.142;2023-06-10T12:59:28;7.45;;;5.80;;
18100;SDS011;9177;49.156;8.142;2023-06-10T13:01:57;6.80;;;5.90;;
18100;SDS011;9177;49.156;8.142;2023-06-10T13:04:25;6.10;;;5.43;;
18100;SDS011;9177;49.156;8.142;2023-06-10T13:06:53;6.43;;;5.80;;
18100;SDS011;9177;49.156;8.142;2023-06-10T13:09:21;5.95;;;5.53;;
18100;SDS011;9177;49.156;8.142;2023-06-10T13:11:48;6.32;;;5.35;;
18100;SDS011;9177;49.156;8.142;2023-06-10T13:14:15;5.85;;;5.25;;
18100;SDS011;9177;49.156;8.142;2023-06-10T13:16:42;6.50;;;5.47;;
18100;SDS011;9177;49.156;8.142;2023-06-10T13:19:10;8.88;;;5.75;;
18100;SDS011;9177;49.156;8.142;2023-06-10T13:21:39;6.07;;;5.47;;
18100;SDS011;9177;49.156;8.142;2023-06-10T13:24:06;5.80;;;5.20;;
18100;SDS011;9177;49.156;8.142;2023-06-10T13:26:33;5.93;;;5.28;;
18100;SDS011;9177;49.156;8.142;2023-06-10T13:29:00;6.35;;;5.00;;
18100;SDS011;9177;49.156;8.142;2023-06-10T13:31:28;8.95;;;6.03;;
18100;SDS011;9177;49.156;8.142;2023-06-10T13:33:55;9.90;;;6.25;;
18100;SDS011;9177;49.156;8.142;2023-06-10T13:36:22;8.75;;;6.45;;
18100;SDS011;9177;49.156;8.142;2023-06-10T13:38:51;8.65;;;6.38;;
18100;SDS011;9177;49.156;8.142;2023-06-10T13:41:18;8.70;;;6.70;;
18100;SDS011;9177;49.156;8.142;2023-06-10T13:43:45;12.00;;;7.15;;
18100;SDS011;9177;49.156;8.142;2023-06-10T13:46:13;11.30;;;7.22;;
18100;SDS011;9177;49.156;8.142;2023-06-10T13:48:40;13.10;;;8.02;;
18100;SDS011;9177;49.156;8.142;2023-06-10T13:51:10;16.05;;;9.38;;
18100;SDS011;9177;49.156;8.142;2023-06-10T13:53:37;16.15;;;10.00;;
18100;SDS011;9177;49.156;8.142;2023-06-10T13:56:06;13.90;;;9.48;;
18100;SDS011;9177;49.156;8.142;2023-06-10T13:58:33;16.85;;;10.50;;
18100;SDS011;9177;49.156;8.142;2023-06-10T14:01:04;25.00;;;12.20;;
18100;SDS011;9177;49.156;8.142;2023-06-10T14:03:31;24.17;;;12.57;;
18100;SDS011;9177;49.156;8.142;2023-06-10T14:05:58;24.70;;;13.25;;
18100;SDS011;9177;49.156;8.142;2023-06-10T14:08:25;24.80;;;12.82;;
18100;SDS011;9177;49.156;8.142;2023-06-10T14:10:52;23.40;;;13.15;;
18100;SDS011;9177;49.156;8.142;2023-06-10T14:13:21;30.42;;;13.60;;
18100;SDS011;9177;49.156;8.142;2023-06-10T14:15:48;24.20;;;13.90;;
18100;SDS011;9177;49.156;8.142;2023-06-10T14:18:15;26.27;;;14.27;;
18100;SDS011;9177;49.156;8.142;2023-06-10T14:20:43;25.60;;;13.27;;
18100;SDS011;9177;49.156;8.142;2023-06-10T14:23:10;27.02;;;15.02;;
18100;SDS011;9177;49.156;8.142;2023-06-10T14:25:37;30.20;;;15.57;;
18100;SDS011;9177;49.156;8.142;2023-06-10T14:28:04;28.67;;;15.73;;
18100;SDS011;9177;49.156;8.142;2023-06-10T14:30:32;29.58;;;15.48;;
18100;SDS011;9177;49.156;8.142;2023-06-10T14:33:00;30.23;;;16.50;;
18100;SDS011;9177;49.156;8.142;2023-06-10T14:35:27;30.83;;;16.88;;
18100;SDS011;9177;49.156;8.142;2023-06-10T14:37:54;29.40;;;16.35;;
18100;SDS011;9177;49.156;8.142;2023-06-10T14:40:21;34.72;;;17.75;;
18100;SDS011;9177;49.156;8.142;2023-06-10T14:42:50;36.65;;;18.35;;
18100;SDS011;9177;49.156;8.142;2023-06-10T14:45:19;31.65;;;17.52;;
18100;SDS011;9177;49.156;8.142;2023-06-10T14:47:51;34.15;;;17.67;;
18100;SDS011;9177;49.156;8.142;2023-06-10T14:50:18;30.75;;;16.20;;
18100;SDS011;9177;49.156;8.142;2023-06-10T14:52:46;30.10;;;16.58;;
18100;SDS011;9177;49.156;8.142;2023-06-10T14:55:13;29.52;;;17.20;;
18100;SDS011;9177;49.156;8.142;2023-06-10T14:57:41;31.45;;;17.73;;
18100;SDS011;9177;49.156;8.142;2023-06-10T15:00:08;30.48;;;17.27;;
18100;SDS011;9177;49.156;8.142;2023-06-10T15:02:37;33.17;;;17.80;;
18100;SDS011;9177;49.156;8.142;2023-06-10T15:05:06;32.17;;;18.17;;
18100;SDS011;9177;49.156;8.142;2023-06-10T15:07:33;32.47;;;18.55;;
18100;SDS011;9177;49.156;8.142;2023-06-10T15:10:00;32.95;;;18.85;;